Time;durP1;ratioP1;P1;durP2;ratioP2;P2;SDS_P1;SDS_P2;PMS_P1;PMS_P2;Temp;Humidity;BMP_temperature;BMP_pressure;BME280_temperature;BME280_humidity;BME280_pressure;Samples;Min_cycle;Max_cycle;Signal;HPM_P1;HPM_P2
2021/12/12 00:01:50;;;;;;;3.47;1.77;;;3.50;99.90;;;;;;5089221;28;20449;-64
2021/12/12 00:04:19;;;;;;;110.95;47.90;;;3.60;99.90;;;;;;5085648;28;20955;-64
2021/12/12 00:06:52;;;;;;;11.13;5.87;;;3.60;99.90;;;;;;5082869;28;20220;-63
2021/12/12 00:09:26;;;;;;;2.50;1.97;;;3.60;99.90;;;;;;5085972;28;20432;-64
2021/12/12 00:11:52;;;;;;;1.70;1.60;;;3.60;99.90;;;;;;5086087;28;20432;-64
2021/12/12 00:14:26;;;;;;;4.37;2.03;;;3.60;99.90;;;;;;5089460;28;20416;-63
2021/12/12 00:16:54;;;;;;;2.60;1.93;;;3.60;99.90;;;;;;5085060;28;20435;-63
2021/12/12 00:19:23;;;;;;;2.35;2.20;;;3.60;99.90;;;;;;5088033;28;20455;-62
2021/12/12 00:21:51;;;;;;;3.95;2.22;;;3.60;99.90;;;;;;5089365;28;20189;-63
2021/12/12 00:24:17;;;;;;;4.30;2.40;;;3.80;99.90;;;;;;5089899;28;20219;-63
2021/12/12 00:26:46;;;;;;;3.83;2.17;;;3.70;99.90;;;;;;5088474;28;20794;-63
2021/12/12 00:29:14;;;;;;;2.90;2.50;;;3.70;99.90;;;;;;5084183;28;20215;-62
2021/12/12 00:31:40;;;;;;;3.37;2.77;;;3.70;99.90;;;;;;5089601;28;20215;-63
2021/12/12 00:34:06;;;;;;;2.60;2.40;;;3.70;99.90;;;;;;5089693;28;20789;-61
2021/12/12 00:36:34;;;;;;;3.27;2.87;;;3.70;99.90;;;;;;5089134;28;20499;-62
2021/12/12 00:39:05;;;;;;;3.70;2.78;;;3.70;99.90;;;;;;5089390;28;21007;-63
2021/12/12 00:41:48;;;;;;;6.13;2.92;;;3.70;99.90;;;;;;5088746;28;20192;-63
2021/12/12 00:44:15;;;;;;;6.40;2.70;;;3.70;99.90;;;;;;5081713;28;20644;-62
2021/12/12 00:46:41;;;;;;;4.00;3.10;;;3.70;99.90;;;;;;5088813;28;20548;-63
2021/12/12 00:49:07;;;;;;;3.40;3.10;;;3.70;99.90;;;;;;5088885;28;20419;-63
2021/12/12 00:51:37;;;;;;;3.33;2.60;;;3.60;99.90;;;;;;5088297;28;20196;-64
2021/12/12 00:54:04;;;;;;;2.90;2.70;;;3.70;99.90;;;;;;5088633;28;20481;-63
2021/12/12 00:56:30;;;;;;;4.35;2.90;;;3.70;99.90;;;;;;5087988;28;20210;-64
2021/12/12 00:58:56;;;;;;;4.53;3.30;;;3.60;99.90;;;;;;5086826;28;20609;-65
2021/12/12 01:01:26;;;;;;;3.28;3.03;;;3.60;99.90;;;;;;5087274;28;20198;-64
2021/12/12 01:03:59;;;;;;;9.75;3.35;;;3.60;99.90;;;;;;5087485;28;20197;-64
2021/12/12 01:06:26;;;;;;;5.00;3.25;;;3.60;99.90;;;;;;5086388;28;20221;-64
2021/12/12 01:08:53;;;;;;;3.10;2.80;;;3.60;99.90;;;;;;5087648;28;20201;-64
2021/12/12 01:11:25;;;;;;;5.03;3.53;;;3.60;99.90;;;;;;5086708;28;20197;-65
2021/12/12 01:13:51;;;;;;;4.75;3.35;;;3.60;99.90;;;;;;5085817;28;20264;-64
2021/12/12 01:16:42;;;;;;;4.70;3.07;;;3.60;99.90;;;;;;5085447;28;20195;-65
2021/12/12 01:19:23;;;;;;;3.35;3.03;;;3.60;99.90;;;;;;5084601;28;20430;-64
2021/12/12 01:21:53;;;;;;;3.85;3.45;;;3.60;99.90;;;;;;5087446;28;20207;-63
2021/12/12 01:24:24;;;;;;;5.07;3.60;;;3.50;99.90;;;;;;5086903;28;20172;-64
2021/12/12 01:26:53;;;;;;;5.73;4.10;;;3.60;99.90;;;;;;5087030;28;20251;-65
2021/12/12 01:29:19;;;;;;;7.05;3.60;;;3.60;99.90;;;;;;5087045;28;20420;-64
2021/12/12 01:31:47;;;;;;;5.28;3.50;;;3.60;99.90;;;;;;5086231;28;20250;-62
2021/12/12 01:34:17;;;;;;;3.50;3.20;;;3.60;99.90;;;;;;5088206;28;20268;-63
2021/12/12 01:37:05;;;;;;;4.07;3.13;;;3.60;99.90;;;;;;5086492;28;20438;-62
2021/12/12 01:39:35;;;;;;;8.25;3.10;;;3.50;99.90;;;;;;5083380;28;20199;-63
2021/12/12 01:42:17;;;;;;;3.55;3.25;;;3.50;99.90;;;;;;5066542;28;20587;-63
2021/12/12 01:44:55;;;;;;;5.72;3.45;;;3.50;99.90;;;;;;5085965;28;20185;-64
2021/12/12 01:47:33;;;;;;;5.07;4.18;;;3.50;99.90;;;;;;5087307;28;20212;-63
2021/12/12 01:50:03;;;;;;;4.13;3.77;;;3.50;99.90;;;;;;5083817;28;20691;-64
2021/12/12 01:52:31;;;;;;;4.83;4.30;;;3.50;99.90;;;;;;5083991;28;20420;-62
2021/12/12 01:55:04;;;;;;;4.35;3.80;;;3.50;99.90;;;;;;5083395;28;20465;-63
2021/12/12 01:57:34;;;;;;;4.22;3.83;;;3.50;99.90;;;;;;5083710;28;20181;-62
2021/12/12 02:00:07;;;;;;;6.72;3.97;;;3.50;99.90;;;;;;5086007;28;20196;-63
2021/12/12 02:02:34;;;;;;;4.25;3.63;;;3.50;99.90;;;;;;5086765;28;20925;-63
2021/12/12 02:05:08;;;;;;;4.97;3.63;;;3.50;99.90;;;;;;5086609;28;20193;-64
2021/12/12 02:07:40;;;;;;;5.40;3.97;;;3.50;99.90;;;;;;5086067;28;21225;-62
2021/12/12 02:10:20;;;;;;;7.10;4.10;;;3.50;99.90;;;;;;5087150;28;20438;-64
2021/12/12 02:12:46;;;;;;;7.68;3.90;;;3.40;99.90;;;;;;5087383;28;20431;-65
2021/12/12 02:15:13;;;;;;;4.05;3.65;;;3.40;99.90;;;;;;5086807;28;20204;-63
2021/12/12 02:17:45;;;;;;;3.05;2.75;;;3.40;99.90;;;;;;5085793;28;20199;-63
2021/12/12 02:20:34;;;;;;;4.93;2.88;;;3.40;99.90;;;;;;5087191;28;20268;-63
2021/12/12 02:23:14;;;;;;;3.73;3.30;;;3.50;99.90;;;;;;5084012;28;20629;-64
2021/12/12 02:36:50;;;;;;;3.30;2.95;;;3.40;99.90;;;;;;5081809;28;20205;-63
2021/12/12 02:39:16;;;;;;;6.97;3.57;;;3.40;99.90;;;;;;5086819;28;20185;-62
2021/12/12 02:41:45;;;;;;;3.47;3.10;;;3.40;99.90;;;;;;5086986;28;20490;-62
2021/12/12 02:44:11;;;;;;;3.30;3.00;;;3.40;99.90;;;;;;5084880;28;20446;-62
2021/12/12 02:46:37;;;;;;;5.03;3.00;;;3.40;99.90;;;;;;5085172;28;21233;-63
2021/12/12 02:49:22;;;;;;;2.83;2.50;;;3.30;99.90;;;;;;5086908;28;20190;-64
2021/12/12 02:51:48;;;;;;;3.20;2.63;;;3.40;99.90;;;;;;5082978;28;20404;-63
2021/12/12 02:54:15;;;;;;;4.43;3.07;;;3.40;99.90;;;;;;5086846;28;20203;-64
2021/12/12 02:56:44;;;;;;;3.60;2.85;;;3.40;99.90;;;;;;5086462;28;20192;-63
2021/12/12 02:59:14;;;;;;;3.87;2.77;;;3.40;99.90;;;;;;5086522;28;20190;-63
2021/12/12 03:01:57;;;;;;;3.50;3.17;;;3.40;99.90;;;;;;5087020;28;20432;-63
2021/12/12 03:04:24;;;;;;;4.07;2.53;;;3.40;99.90;;;;;;5081916;28;20442;-63
2021/12/12 03:06:51;;;;;;;3.05;2.80;;;3.30;99.90;;;;;;5086174;28;20228;-62
2021/12/12 03:09:24;;;;;;;3.47;2.67;;;3.30;99.90;;;;;;5086471;28;20183;-63
2021/12/12 03:11:54;;;;;;;3.70;2.33;;;3.30;99.90;;;;;;5086870;28;20419;-64
2021/12/12 03:14:20;;;;;;;2.25;2.00;;;3.30;99.90;;;;;;5086410;28;20412;-62
2021/12/12 03:16:48;;;;;;;2.17;1.93;;;3.20;99.90;;;;;;5087634;28;20981;-62
2021/12/12 03:19:19;;;;;;;3.55;2.47;;;3.30;99.90;;;;;;5089828;28;20440;-64
2021/12/12 03:21:46;;;;;;;3.80;2.67;;;3.30;99.90;;;;;;5086894;28;20944;-65
2021/12/12 03:24:19;;;;;;;3.35;2.25;;;3.30;99.90;;;;;;5090294;28;20189;-64
2021/12/12 03:26:47;;;;;;;3.72;2.60;;;3.30;99.90;;;;;;5086789;28;20204;-64
2021/12/12 03:29:14;;;;;;;6.83;3.10;;;3.30;99.90;;;;;;5089821;28;20276;-64
2021/12/12 03:31:46;;;;;;;4.97;2.80;;;3.30;99.90;;;;;;5090242;28;20426;-65
2021/12/12 03:34:16;;;;;;;2.90;2.70;;;3.30;99.90;;;;;;5084337;28;20459;-64
2021/12/12 03:36:43;;;;;;;3.03;2.83;;;3.30;99.90;;;;;;5087024;28;20183;-64
2021/12/12 03:39:16;;;;;;;3.87;2.40;;;3.30;99.90;;;;;;5089839;28;20241;-64
2021/12/12 03:41:42;;;;;;;3.70;2.63;;;3.20;99.90;;;;;;5086904;28;20483;-64
2021/12/12 03:44:14;;;;;;;2.55;2.35;;;3.10;99.90;;;;;;5088626;28;20207;-66
2021/12/12 03:46:41;;;;;;;3.20;2.60;;;3.10;99.90;;;;;;5084700;28;20221;-64
2021/12/12 03:49:08;;;;;;;3.17;2.70;;;3.20;99.90;;;;;;5088283;28;20189;-65
2021/12/12 03:51:35;;;;;;;3.42;2.95;;;3.20;99.90;;;;;;5090110;28;20201;-65
2021/12/12 03:54:02;;;;;;;3.07;2.30;;;3.20;99.90;;;;;;5088386;28;20288;-65
2021/12/12 03:56:28;;;;;;;5.93;3.40;;;3.20;99.90;;;;;;5089403;28;20440;-66
2021/12/12 03:58:55;;;;;;;3.53;2.43;;;3.20;99.90;;;;;;5088229;28;20457;-63
2021/12/12 04:01:27;;;;;;;4.88;2.22;;;3.20;99.90;;;;;;5089402;28;20438;-64
2021/12/12 04:03:57;;;;;;;4.05;2.63;;;3.20;99.90;;;;;;5089451;28;20189;-63
2021/12/12 04:06:26;;;;;;;2.45;2.35;;;3.20;99.90;;;;;;5087185;28;20518;-62
2021/12/12 04:08:53;;;;;;;4.17;2.83;;;3.20;99.90;;;;;;5088002;28;20727;-62
2021/12/12 04:11:25;;;;;;;3.80;3.40;;;3.10;99.90;;;;;;5089208;28;21146;-61
2021/12/12 04:13:54;;;;;;;7.20;3.50;;;3.10;99.90;;;;;;5089105;28;21196;-62
2021/12/12 04:16:21;;;;;;;11.82;2.97;;;3.10;99.90;;;;;;5088461;28;20188;-63
2021/12/12 04:18:47;;;;;;;5.20;2.92;;;3.00;99.90;;;;;;5089110;28;20275;-62
2021/12/12 04:21:13;;;;;;;3.70;3.00;;;3.00;99.90;;;;;;5089045;28;20364;-62
2021/12/12 04:23:40;;;;;;;3.65;3.03;;;2.90;99.90;;;;;;5087761;28;20426;-64
2021/12/12 04:26:33;;;;;;;3.63;2.65;;;2.90;99.90;;;;;;5088561;28;20222;-65
2021/12/12 04:29:00;;;;;;;4.57;2.65;;;2.90;99.90;;;;;;5088047;28;20664;-64
2021/12/12 04:31:27;;;;;;;3.35;2.38;;;2.90;99.90;;;;;;5088455;28;20656;-65
2021/12/12 04:33:53;;;;;;;2.85;2.20;;;2.80;99.90;;;;;;5089012;28;20188;-64
2021/12/12 04:36:34;;;;;;;3.35;2.40;;;2.80;99.90;;;;;;5088942;28;20191;-64
2021/12/12 04:39:06;;;;;;;2.45;2.25;;;2.80;99.90;;;;;;5085617;28;20662;-65
2021/12/12 04:41:32;;;;;;;3.20;2.72;;;2.80;99.90;;;;;;5089342;28;20180;-66
2021/12/12 04:43:58;;;;;;;2.33;1.90;;;2.70;99.90;;;;;;5089482;28;20196;-64
2021/12/12 04:46:36;;;;;;;2.23;2.13;;;2.70;99.90;;;;;;5087301;28;20230;-64
2021/12/12 04:51:57;;;;;;;5.57;1.77;;;2.60;99.90;;;;;;5089532;28;20193;-65
2021/12/12 04:54:35;;;;;;;2.63;2.40;;;2.70;99.90;;;;;;5084037;28;20211;-63
2021/12/12 04:57:10;;;;;;;2.33;2.20;;;2.60;99.90;;;;;;5086053;28;20298;-63
2021/12/12 04:59:46;;;;;;;4.13;2.70;;;2.50;99.90;;;;;;5088366;28;20427;-64
2021/12/12 05:02:14;;;;;;;3.13;2.22;;;2.50;99.90;;;;;;5088821;28;20228;-62
2021/12/12 05:05:05;;;;;;;4.80;2.83;;;2.40;99.90;;;;;;5088732;28;20202;-61
2021/12/12 05:07:43;;;;;;;2.88;2.33;;;2.30;99.90;;;;;;5083883;28;20803;-63
2021/12/12 05:10:21;;;;;;;2.42;2.25;;;2.40;99.90;;;;;;5085635;28;20187;-62
2021/12/12 05:13:19;;;;;;;6.55;2.22;;;2.30;99.90;;;;;;5087947;28;20848;-61
2021/12/12 05:15:51;;;;;;;2.45;1.80;;;2.30;99.90;;;;;;5087070;28;20175;-64
2021/12/12 05:18:39;;;;;;;2.85;1.95;;;2.30;99.90;;;;;;5088206;28;20212;-64
2021/12/12 05:21:11;;;;;;;5.05;1.85;;;2.30;99.90;;;;;;5086567;28;20181;-63
2021/12/12 05:23:44;;;;;;;1.75;1.65;;;2.30;99.90;;;;;;5087981;28;20177;-63
2021/12/12 05:26:13;;;;;;;2.58;1.73;;;2.20;99.90;;;;;;5087952;28;20197;-64
2021/12/12 05:28:49;;;;;;;1.55;1.42;;;2.20;99.90;;;;;;5087250;28;20288;-64
2021/12/12 05:31:18;;;;;;;1.73;1.63;;;2.20;99.90;;;;;;5087649;28;20638;-64
2021/12/12 05:33:44;;;;;;;4.72;1.95;;;2.20;99.90;;;;;;5087889;28;20513;-63
2021/12/12 05:36:12;;;;;;;1.85;1.75;;;2.10;99.90;;;;;;5069349;28;20203;-64
2021/12/12 05:38:39;;;;;;;2.03;1.80;;;2.00;99.90;;;;;;5087390;28;20236;-63
2021/12/12 05:41:06;;;;;;;1.90;1.80;;;2.00;99.90;;;;;;5086973;28;20209;-64
2021/12/12 05:43:32;;;;;;;2.20;2.10;;;2.00;99.90;;;;;;5087290;28;20226;-62
2021/12/12 05:46:01;;;;;;;2.08;1.90;;;1.90;99.90;;;;;;5086115;28;22211;-63
2021/12/12 05:48:28;;;;;;;5.00;3.95;;;1.90;99.90;;;;;;5087802;28;20817;-65
2021/12/12 05:50:54;;;;;;;43.20;16.23;;;1.90;99.90;;;;;;5088007;28;20303;-62
2021/12/12 05:53:20;;;;;;;2.97;2.50;;;1.80;99.90;;;;;;5087510;28;20270;-63
2021/12/12 05:55:47;;;;;;;3.63;2.28;;;1.80;99.90;;;;;;5087216;28;20735;-63
2021/12/12 05:58:16;;;;;;;5.20;2.38;;;1.80;99.90;;;;;;5087399;28;20979;-62
2021/12/12 06:00:46;;;;;;;2.20;2.10;;;1.80;99.90;;;;;;5085997;28;20213;-62
2021/12/12 06:03:15;;;;;;;3.33;2.53;;;1.80;99.90;;;;;;5082493;28;20312;-62
2021/12/12 06:05:41;;;;;;;2.85;1.95;;;1.80;99.90;;;;;;5086501;28;20211;-63
2021/12/12 06:08:08;;;;;;;2.28;2.00;;;1.70;99.90;;;;;;5086862;28;20921;-63
2021/12/12 06:10:37;;;;;;;2.95;2.13;;;1.70;99.90;;;;;;5086025;28;20226;-63
2021/12/12 06:13:04;;;;;;;1.40;1.30;;;1.70;99.90;;;;;;5085568;28;20200;-64
2021/12/12 06:15:32;;;;;;;2.35;1.58;;;1.70;99.90;;;;;;5086003;28;20184;-63
2021/12/12 06:17:59;;;;;;;2.45;1.90;;;1.70;99.90;;;;;;5085012;28;20698;-64
2021/12/12 06:20:27;;;;;;;1.92;1.58;;;1.60;99.90;;;;;;5086208;28;20191;-64
2021/12/12 06:22:54;;;;;;;1.67;1.52;;;1.50;99.90;;;;;;5085967;28;20924;-65
2021/12/12 06:25:20;;;;;;;2.15;1.95;;;1.60;99.90;;;;;;5084468;28;20183;-65
2021/12/12 06:27:46;;;;;;;1.63;1.52;;;1.60;99.90;;;;;;5085768;28;20229;-64
2021/12/12 06:30:17;;;;;;;1.80;1.60;;;1.60;99.90;;;;;;5084929;28;20187;-65
2021/12/12 06:32:45;;;;;;;2.22;1.52;;;1.60;99.90;;;;;;5084732;28;20189;-65
2021/12/12 06:35:11;;;;;;;3.08;1.70;;;1.60;99.90;;;;;;5086269;28;20556;-65
2021/12/12 06:37:37;;;;;;;2.28;1.70;;;1.60;99.90;;;;;;5083914;28;20695;-64
2021/12/12 06:40:07;;;;;;;1.10;1.10;;;1.50;99.90;;;;;;5082364;28;20187;-63
2021/12/12 06:42:33;;;;;;;1.80;1.70;;;1.50;99.90;;;;;;5082292;28;20195;-63
2021/12/12 06:44:59;;;;;;;1.67;1.58;;;1.50;99.90;;;;;;5084118;28;20190;-64
2021/12/12 06:47:26;;;;;;;1.30;1.20;;;1.50;99.90;;;;;;5083167;28;20261;-64
2021/12/12 06:49:52;;;;;;;3.08;1.65;;;1.50;99.90;;;;;;5065351;28;20447;-65
2021/12/12 06:52:18;;;;;;;1.88;1.70;;;1.40;99.90;;;;;;5085183;28;20661;-65
2021/12/12 06:54:46;;;;;;;1.50;1.40;;;1.40;99.90;;;;;;5069456;28;20199;-66
2021/12/12 06:57:14;;;;;;;2.22;2.03;;;1.40;99.90;;;;;;5086145;28;20228;-64
2021/12/12 06:59:42;;;;;;;4.82;3.17;;;1.40;99.90;;;;;;5085888;28;20586;-65
2021/12/12 07:02:09;;;;;;;5.75;3.70;;;1.40;99.90;;;;;;5087320;28;20217;-64
2021/12/12 07:04:37;;;;;;;3.85;2.70;;;1.40;99.90;;;;;;5086703;28;20225;-65
2021/12/12 07:07:05;;;;;;;2.28;1.75;;;1.30;99.90;;;;;;5085207;28;20230;-66
2021/12/12 07:09:31;;;;;;;2.40;2.20;;;1.30;99.90;;;;;;5086560;28;20198;-65
2021/12/12 07:12:01;;;;;;;2.00;1.90;;;1.30;99.90;;;;;;5082848;28;20664;-65
2021/12/12 07:14:27;;;;;;;2.05;1.95;;;1.20;99.90;;;;;;5081391;28;20181;-65
2021/12/12 07:16:55;;;;;;;2.25;2.05;;;1.20;99.90;;;;;;5087140;28;20701;-65
2021/12/12 07:19:21;;;;;;;3.35;2.55;;;1.20;99.90;;;;;;5085349;28;20203;-65
2021/12/12 07:21:47;;;;;;;2.13;2.03;;;1.20;99.90;;;;;;5086601;28;20219;-65
2021/12/12 07:24:15;;;;;;;3.35;2.90;;;1.20;99.90;;;;;;5086752;28;20663;-65
2021/12/12 07:26:41;;;;;;;2.20;2.10;;;1.20;99.90;;;;;;5086451;28;20203;-64
2021/12/12 07:29:07;;;;;;;2.35;2.15;;;1.10;99.90;;;;;;5086772;28;21047;-65
2021/12/12 07:31:36;;;;;;;1.70;1.60;;;1.10;99.90;;;;;;5068006;28;20194;-64
2021/12/12 07:34:05;;;;;;;3.95;3.42;;;1.20;99.90;;;;;;5086713;28;20250;-64
2021/12/12 07:36:34;;;;;;;2.80;2.55;;;1.20;99.90;;;;;;5084911;28;20678;-65
2021/12/12 07:39:07;;;;;;;3.80;3.50;;;1.10;99.90;;;;;;5086212;28;20192;-65
2021/12/12 07:41:34;;;;;;;2.80;2.60;;;1.20;99.90;;;;;;5085873;28;20183;-65
2021/12/12 07:44:01;;;;;;;2.78;2.50;;;1.10;99.90;;;;;;5086444;28;20707;-64
2021/12/12 07:46:27;;;;;;;2.70;2.50;;;1.20;99.90;;;;;;5085319;28;21138;-64
2021/12/12 07:48:54;;;;;;;2.90;2.70;;;1.20;99.90;;;;;;5085934;28;20639;-64
2021/12/12 07:51:22;;;;;;;2.75;2.55;;;1.10;99.90;;;;;;5085771;28;20210;-65
2021/12/12 07:53:52;;;;;;;2.60;2.40;;;1.20;99.90;;;;;;5086183;28;20287;-64
2021/12/12 07:56:22;;;;;;;3.38;3.15;;;1.20;99.90;;;;;;5086079;28;20222;-64
2021/12/12 07:58:49;;;;;;;3.42;2.70;;;1.20;99.90;;;;;;5084601;28;20241;-65
2021/12/12 08:01:16;;;;;;;2.90;2.70;;;1.60;99.90;;;;;;5085430;28;20197;-64
2021/12/12 08:03:43;;;;;;;3.40;3.15;;;2.70;99.90;;;;;;5076746;28;20305;-65
2021/12/12 08:06:11;;;;;;;5.07;3.87;;;3.80;99.90;;;;;;5081607;28;20227;-66
2021/12/12 08:08:38;;;;;;;3.00;2.80;;;5.00;99.90;;;;;;5082318;28;20452;-66
2021/12/12 08:11:05;;;;;;;3.40;2.90;;;6.20;99.90;;;;;;5084797;28;20813;-67
2021/12/12 08:13:31;;;;;;;3.27;3.00;;;7.30;99.90;;;;;;5083191;28;20446;-65
2021/12/12 08:15:58;;;;;;;2.80;2.63;;;8.40;98.40;;;;;;5083239;28;20527;-67
2021/12/12 08:18:24;;;;;;;3.03;2.80;;;9.00;94.90;;;;;;5082301;28;20979;-67
2021/12/12 08:20:51;;;;;;;2.70;2.50;;;9.70;93.30;;;;;;5084230;28;20511;-67
2021/12/12 08:23:19;;;;;;;3.40;3.10;;;10.10;91.40;;;;;;5082998;28;20424;-67
2021/12/12 08:25:47;;;;;;;3.37;3.07;;;10.80;87.20;;;;;;5084180;28;20440;-68
2021/12/12 08:28:14;;;;;;;3.80;3.50;;;11.00;82.40;;;;;;5084619;28;20426;-67
2021/12/12 08:30:41;;;;;;;3.10;2.90;;;10.70;81.70;;;;;;5084316;28;21009;-67
2021/12/12 08:33:08;;;;;;;3.63;3.33;;;11.40;81.80;;;;;;5082845;28;20436;-68
2021/12/12 08:35:35;;;;;;;3.57;3.27;;;12.00;77.30;;;;;;5084496;28;20424;-68
2021/12/12 08:38:04;;;;;;;3.97;3.67;;;11.90;77.70;;;;;;5084274;28;20853;-67
2021/12/12 08:40:34;;;;;;;3.67;3.37;;;13.10;74.20;;;;;;5084318;28;21278;-67
2021/12/12 08:43:00;;;;;;;3.33;3.07;;;12.80;73.70;;;;;;5084438;28;20431;-68
2021/12/12 08:45:32;;;;;;;4.13;2.73;;;12.60;70.60;;;;;;5082496;28;20428;-67
2021/12/12 08:48:00;;;;;;;2.53;2.33;;;12.50;70.20;;;;;;5083956;28;20460;-67
2021/12/12 08:50:30;;;;;;;2.97;2.77;;;11.70;71.90;;;;;;5083843;28;20493;-67
2021/12/12 08:52:57;;;;;;;2.37;2.17;;;12.00;72.10;;;;;;5083985;28;20482;-67
2021/12/12 08:55:32;;;;;;;2.40;2.30;;;11.90;71.70;;;;;;5084266;28;20412;-67
2021/12/12 08:58:14;;;;;;;3.10;2.80;;;11.30;72.40;;;;;;5083280;28;21365;-66
2021/12/12 09:00:49;;;;;;;3.20;2.90;;;10.60;75.00;;;;;;5079996;28;20424;-67
2021/12/12 09:03:49;;;;;;;2.80;2.60;;;9.70;79.30;;;;;;5080402;28;20456;-66
2021/12/12 09:06:17;;;;;;;5.27;4.63;;;9.20;84.50;;;;;;5080397;28;20478;-66
2021/12/12 09:09:09;;;;;;;5.50;4.80;;;8.60;87.70;;;;;;5083685;28;20447;-66
2021/12/12 09:11:52;;;;;;;3.00;2.80;;;8.00;90.70;;;;;;5083256;28;20435;-66
2021/12/12 09:14:44;;;;;;;3.20;2.90;;;7.70;91.60;;;;;;5081221;28;20422;-66
2021/12/12 09:17:28;;;;;;;2.93;2.73;;;7.40;92.20;;;;;;5079813;28;20425;-65
2021/12/12 09:20:04;;;;;;;2.80;2.57;;;7.10;93.80;;;;;;5081637;28;20424;-65
2021/12/12 09:22:44;;;;;;;4.43;2.20;;;7.00;94.10;;;;;;5083295;28;20428;-66
2021/12/12 09:25:15;;;;;;;2.30;2.13;;;7.10;94.90;;;;;;5080326;28;20443;-66
2021/12/12 09:27:44;;;;;;;1.57;1.47;;;7.00;94.40;;;;;;5083329;28;20465;-66
2021/12/12 09:30:14;;;;;;;7.50;1.97;;;7.00;94.80;;;;;;5083310;28;20425;-65
2021/12/12 09:33:04;;;;;;;1.60;1.50;;;7.40;94.40;;;;;;5078261;28;20868;-66
2021/12/12 09:35:38;;;;;;;1.20;1.10;;;7.50;92.50;;;;;;5083394;28;20429;-66
2021/12/12 09:38:25;;;;;;;1.87;1.43;;;7.60;91.90;;;;;;5078060;28;20440;-65
2021/12/12 09:41:23;;;;;;;2.17;2.03;;;7.40;92.90;;;;;;5084490;28;20426;-65
2021/12/12 09:44:36;;;;;;;1.50;1.40;;;7.60;94.80;;;;;;5081612;28;20428;-64
2021/12/12 09:53:32;;;;;;;1.30;1.20;;;8.50;92.80;;;;;;5080400;28;20416;-66
2021/12/12 09:56:27;;;;;;;1.30;1.20;;;7.90;90.40;;;;;;5080355;28;20421;-66
2021/12/12 09:59:03;;;;;;;1.50;1.40;;;7.60;91.70;;;;;;5073404;28;20455;-66
2021/12/12 10:01:46;;;;;;;1.57;1.47;;;7.20;91.90;;;;;;5081158;28;20449;-65
2021/12/12 10:04:20;;;;;;;1.50;1.40;;;6.80;93.20;;;;;;5081346;28;20837;-66
2021/12/12 10:07:01;;;;;;;2.30;1.20;;;7.00;95.20;;;;;;5080769;28;20467;-65
2021/12/12 10:09:36;;;;;;;1.50;1.40;;;6.90;94.10;;;;;;5081991;28;21201;-66
2021/12/12 10:12:12;;;;;;;2.03;1.50;;;6.70;94.30;;;;;;5081429;28;20424;-65
2021/12/12 10:14:49;;;;;;;2.00;1.50;;;6.50;94.50;;;;;;5081825;28;20484;-65
2021/12/12 10:17:34;;;;;;;1.53;1.40;;;7.00;96.90;;;;;;5081053;28;20435;-64
2021/12/12 10:20:11;;;;;;;2.53;2.13;;;7.20;95.30;;;;;;5081497;28;20445;-65
2021/12/12 10:22:58;;;;;;;7.93;5.57;;;7.20;95.30;;;;;;5081551;28;20443;-65
2021/12/12 10:25:48;;;;;;;17.97;10.70;;;7.40;99.90;;;;;;5081384;28;20921;-63
2021/12/12 10:28:19;;;;;;;9.27;6.10;;;7.40;99.90;;;;;;5080357;28;20480;-65
2021/12/12 10:31:24;;;;;;;7.17;5.10;;;7.20;99.90;;;;;;5081093;28;20432;-65
2021/12/12 10:33:58;;;;;;;18.57;10.27;;;7.00;99.90;;;;;;5068522;28;20440;-64
2021/12/12 10:36:39;;;;;;;7.73;6.17;;;7.10;99.90;;;;;;5081415;28;20544;-64
2021/12/12 10:39:08;;;;;;;8.33;6.50;;;7.10;99.90;;;;;;5081341;28;20417;-64
2021/12/12 10:41:56;;;;;;;5.07;3.13;;;7.00;99.90;;;;;;5079587;28;20443;-64
2021/12/12 10:44:27;;;;;;;3.70;2.53;;;6.90;99.00;;;;;;5080873;28;20417;-65
2021/12/12 10:47:11;;;;;;;3.13;2.83;;;6.80;99.20;;;;;;5080349;28;20473;-64
2021/12/12 10:49:52;;;;;;;11.17;4.77;;;6.70;99.90;;;;;;5080943;28;20539;-63
2021/12/12 10:52:43;;;;;;;10.13;6.50;;;6.80;99.90;;;;;;5080768;28;20412;-65
2021/12/12 10:55:30;;;;;;;9.50;7.57;;;6.70;99.90;;;;;;5078992;28;20439;-64
2021/12/12 10:58:07;;;;;;;14.43;8.77;;;6.50;99.90;;;;;;5079958;28;21851;-64
2021/12/12 11:00:40;;;;;;;9.63;6.10;;;6.50;99.90;;;;;;5079008;28;20436;-64
2021/12/12 11:03:18;;;;;;;7.80;5.80;;;6.40;99.90;;;;;;5081033;28;20994;-65
2021/12/12 11:06:06;;;;;;;8.10;5.03;;;6.20;99.90;;;;;;5080128;28;20456;-65
2021/12/12 11:08:50;;;;;;;5.60;4.20;;;6.40;99.90;;;;;;5059120;28;20481;-65
2021/12/12 11:11:23;;;;;;;14.03;8.57;;;6.50;99.90;;;;;;5080876;28;20452;-65
2021/12/12 11:14:15;;;;;;;11.67;9.10;;;6.40;99.90;;;;;;5079206;28;20452;-65
2021/12/12 11:16:53;;;;;;;12.83;8.53;;;6.40;99.90;;;;;;5080110;28;20416;-65
2021/12/12 11:19:33;;;;;;;7.03;6.33;;;6.40;99.90;;;;;;5080781;28;20424;-65
2021/12/12 11:22:14;;;;;;;8.40;5.93;;;6.20;99.90;;;;;;5079453;28;20494;-64
2021/12/12 11:24:46;;;;;;;8.27;6.37;;;6.20;99.90;;;;;;5080539;28;20959;-64
2021/12/12 11:27:16;;;;;;;7.80;6.50;;;6.10;99.90;;;;;;5079546;28;20476;-64
2021/12/12 11:29:52;;;;;;;8.57;5.13;;;6.20;99.90;;;;;;5080605;28;20424;-64
2021/12/12 11:32:27;;;;;;;7.37;5.40;;;6.30;99.90;;;;;;5080251;28;20428;-65
2021/12/12 11:34:55;;;;;;;8.30;5.70;;;6.30;99.90;;;;;;5080216;28;20508;-64
2021/12/12 11:37:48;;;;;;;6.53;5.83;;;6.50;99.90;;;;;;5081210;28;20432;-65
2021/12/12 11:40:29;;;;;;;8.50;7.53;;;6.50;99.90;;;;;;5084233;28;20436;-64
2021/12/12 11:43:25;;;;;;;11.20;6.90;;;6.50;99.90;;;;;;5084512;28;20434;-63
2021/12/12 11:46:04;;;;;;;8.03;5.83;;;6.50;99.90;;;;;;5083717;28;20868;-65
2021/12/12 11:49:00;;;;;;;12.43;5.83;;;6.50;99.90;;;;;;5082224;28;20436;-65
2021/12/12 11:51:32;;;;;;;5.97;4.77;;;6.50;99.90;;;;;;5084010;28;20415;-66
2021/12/12 11:54:15;;;;;;;8.27;5.97;;;6.60;99.90;;;;;;5082899;28;20442;-65
2021/12/12 11:56:48;;;;;;;16.57;5.30;;;6.50;99.90;;;;;;5083896;28;20420;-64
2021/12/12 11:59:25;;;;;;;9.80;5.80;;;6.40;99.90;;;;;;5083977;28;20994;-65
2021/12/12 12:02:22;;;;;;;8.00;4.40;;;6.30;99.90;;;;;;5083828;28;20451;-64
2021/12/12 12:04:54;;;;;;;5.50;4.00;;;6.40;99.90;;;;;;5062467;28;20440;-65
2021/12/12 12:07:45;;;;;;;4.20;3.37;;;6.50;99.90;;;;;;5083014;28;20464;-65
2021/12/12 12:10:38;;;;;;;6.33;3.50;;;6.50;99.90;;;;;;5082528;28;20436;-64
2021/12/12 12:13:40;;;;;;;7.30;3.60;;;6.50;99.90;;;;;;5082875;28;20479;-65
2021/12/12 12:16:18;;;;;;;4.13;2.60;;;6.50;99.90;;;;;;5083827;28;20503;-64
2021/12/12 12:19:00;;;;;;;5.17;4.00;;;6.40;99.90;;;;;;5084197;28;20428;-64
2021/12/12 12:21:55;;;;;;;7.43;4.03;;;6.50;99.90;;;;;;5083830;28;20599;-65
2021/12/12 12:24:36;;;;;;;4.00;3.27;;;6.50;99.90;;;;;;5084261;28;20416;-63
2021/12/12 12:27:10;;;;;;;4.90;2.77;;;6.50;99.90;;;;;;5082375;28;20569;-63
2021/12/12 12:30:13;;;;;;;3.60;2.53;;;6.50;99.90;;;;;;5083547;28;20915;-64
2021/12/12 12:33:26;;;;;;;4.17;2.87;;;6.20;99.90;;;;;;5083700;28;20412;-64
2021/12/12 12:36:23;;;;;;;3.70;2.00;;;6.20;99.90;;;;;;5083352;28;20417;-65
2021/12/12 12:39:07;;;;;;;3.03;2.07;;;6.20;99.90;;;;;;5084268;28;20528;-64
2021/12/12 12:42:10;;;;;;;3.67;2.23;;;6.40;99.90;;;;;;5083695;28;21048;-65
2021/12/12 12:44:54;;;;;;;2.03;1.20;;;6.60;99.90;;;;;;5084489;28;20432;-64
2021/12/12 12:47:38;;;;;;;1.00;0.90;;;6.60;99.90;;;;;;5083631;28;20499;-64
2021/12/12 12:50:40;;;;;;;1.90;1.43;;;6.70;99.90;;;;;;5082730;28;20440;-65
2021/12/12 12:53:06;;;;;;;2.70;1.50;;;6.80;99.90;;;;;;5081551;28;20502;-65
2021/12/12 12:55:34;;;;;;;1.63;1.53;;;6.90;99.90;;;;;;5083408;28;20846;-65
2021/12/12 12:58:27;;;;;;;2.23;1.90;;;6.80;99.50;;;;;;5083066;28;20272;-64
2021/12/12 13:01:08;;;;;;;1.60;1.27;;;6.70;98.90;;;;;;5082578;28;20981;-64
2021/12/12 13:04:08;;;;;;;1.67;1.20;;;6.60;98.70;;;;;;5084912;28;20466;-66
2021/12/12 13:07:13;;;;;;;2.80;1.17;;;6.60;98.80;;;;;;5064974;28;20492;-64
2021/12/12 13:09:43;;;;;;;1.40;1.30;;;6.90;99.70;;;;;;5085828;28;20432;-65
2021/12/12 13:12:11;;;;;;;1.30;1.20;;;7.10;98.60;;;;;;5086043;28;20854;-65
2021/12/12 13:14:57;;;;;;;1.20;1.10;;;7.30;97.50;;;;;;5081166;28;20424;-64
2021/12/12 13:17:50;;;;;;;1.20;1.07;;;7.50;97.70;;;;;;5083068;28;20429;-65
2021/12/12 13:20:32;;;;;;;1.47;1.27;;;7.60;99.10;;;;;;5084773;28;21350;-65
2021/12/12 13:23:21;;;;;;;1.47;1.10;;;7.40;95.10;;;;;;5085037;28;20424;-65
2021/12/12 13:26:00;;;;;;;4.87;1.70;;;7.30;95.30;;;;;;5085155;28;20430;-65
2021/12/12 13:28:52;;;;;;;8.07;3.47;;;7.30;97.40;;;;;;5085001;28;20503;-64
2021/12/12 13:31:27;;;;;;;4.17;2.50;;;7.40;97.50;;;;;;5084486;28;20450;-63
2021/12/12 13:34:19;;;;;;;2.30;1.73;;;7.40;97.20;;;;;;5083500;28;20416;-64
2021/12/12 13:37:03;;;;;;;3.00;1.70;;;7.40;97.00;;;;;;5085150;28;20927;-63
2021/12/12 13:39:47;;;;;;;2.07;1.30;;;7.40;95.90;;;;;;5084995;28;20420;-63
2021/12/12 13:42:24;;;;;;;1.80;1.40;;;7.30;95.20;;;;;;5085334;28;20449;-64
2021/12/12 13:44:55;;;;;;;1.63;1.50;;;7.30;98.30;;;;;;5084879;28;20440;-65
2021/12/12 13:47:41;;;;;;;1.87;1.53;;;7.30;97.60;;;;;;5082707;28;21191;-65
2021/12/12 13:50:12;;;;;;;2.20;1.27;;;7.30;97.60;;;;;;5084947;28;20448;-64
2021/12/12 13:52:41;;;;;;;1.90;1.37;;;7.10;97.20;;;;;;5083653;28;20433;-65